sensor_id;sensor_type;location;lat;lon;timestamp;pressure;altitude;pressure_sealevel;temperature;humidity
69848;BME280;57143;55.940;37.496;2023-02-10T00:01:05;98307.25;;;-1.81;100.00
69848;BME280;57143;55.940;37.496;2023-02-10T00:03:32;98313.22;;;-1.79;100.00
69848;BME280;57143;55.940;37.496;2023-02-10T00:06:00;98332.34;;;-1.53;100.00
69848;BME280;57143;55.940;37.496;2023-02-10T00:08:30;98330.03;;;-1.56;100.00
69848;BME280;57143;55.940;37.496;2023-02-10T00:10:57;98293.13;;;-1.73;100.00
69848;BME280;57143;55.940;37.496;2023-02-10T00:13:25;98324.84;;;-1.49;100.00
69848;BME280;57143;55.940;37.496;2023-02-10T00:15:53;98269.94;;;-1.87;100.00
69848;BME280;57143;55.940;37.496;2023-02-10T00:18:21;98327.31;;;-1.48;100.00
69848;BME280;57143;55.940;37.496;2023-02-10T00:20:48;98323.88;;;-1.56;100.00
69848;BME280;57143;55.940;37.496;2023-02-10T00:23:15;98332.34;;;-1.53;100.00
69848;BME280;57143;55.940;37.496;2023-02-10T00:25:44;98325.88;;;-1.58;100.00
69848;BME280;57143;55.940;37.496;2023-02-10T00:28:11;98337.66;;;-1.53;100.00
69848;BME280;57143;55.940;37.496;2023-02-10T00:30:39;98326.06;;;-1.60;100.00
69848;BME280;57143;55.940;37.496;2023-02-10T00:33:06;98344.59;;;-1.52;100.00
69848;BME280;57143;55.940;37.496;2023-02-10T00:35:33;98335.47;;;-1.49;100.00
69848;BME280;57143;55.940;37.496;2023-02-10T00:38:03;98331.91;;;-1.64;100.00
69848;BME280;57143;55.940;37.496;2023-02-10T00:40:30;98335.06;;;-1.69;100.00
69848;BME280;57143;55.940;37.496;2023-02-10T00:42:58;98320.75;;;-1.60;100.00
69848;BME280;57143;55.940;37.496;2023-02-10T00:45:26;98271.78;;;-1.88;100.00
69848;BME280;57143;55.940;37.496;2023-02-10T00:47:53;98297.09;;;-1.69;100.00
69848;BME280;57143;55.940;37.496;2023-02-10T00:50:20;98288.00;;;-1.83;100.00
69848;BME280;57143;55.940;37.496;2023-02-10T00:52:47;98271.94;;;-1.81;100.00
69848;BME280;57143;55.940;37.496;2023-02-10T00:55:15;98285.97;;;-1.73;100.00
69848;BME280;57143;55.940;37.496;2023-02-10T00:57:42;98283.94;;;-1.63;100.00
69848;BME280;57143;55.940;37.496;2023-02-10T01:00:12;98276.75;;;-1.62;100.00
69848;BME280;57143;55.940;37.496;2023-02-10T01:02:39;98248.84;;;-1.81;100.00
69848;BME280;57143;55.940;37.496;2023-02-10T01:05:07;98274.09;;;-1.62;100.00
69848;BME280;57143;55.940;37.496;2023-02-10T01:07:34;98283.28;;;-1.65;100.00
69848;BME280;57143;55.940;37.496;2023-02-10T01:10:01;98303.94;;;-1.83;100.00
69848;BME280;57143;55.940;37.496;2023-02-10T01:12:29;98265.56;;;-2.03;100.00
69848;BME280;57143;55.940;37.496;2023-02-10T01:15:16;98320.34;;;-1.79;100.00
69848;BME280;57143;55.940;37.496;2023-02-10T01:17:43;98286.97;;;-2.04;100.00
69848;BME280;57143;55.940;37.496;2023-02-10T01:20:10;98307.34;;;-1.97;100.00
69848;BME280;57143;55.940;37.496;2023-02-10T01:22:38;98242.50;;;-2.33;100.00
69848;BME280;57143;55.940;37.496;2023-02-10T01:25:05;98336.38;;;-1.95;100.00
69848;BME280;57143;55.940;37.496;2023-02-10T01:27:33;98289.34;;;-2.17;100.00
69848;BME280;57143;55.940;37.496;2023-02-10T01:30:00;98331.59;;;-2.08;100.00
69848;BME280;57143;55.940;37.496;2023-02-10T01:32:31;98305.00;;;-2.00;100.00
69848;BME280;57143;55.940;37.496;2023-02-10T01:34:59;98299.09;;;-2.10;100.00
69848;BME280;57143;55.940;37.496;2023-02-10T01:37:26;98317.81;;;-2.03;100.00
69848;BME280;57143;55.940;37.496;2023-02-10T01:39:53;98308.75;;;-2.17;100.00
69848;BME280;57143;55.940;37.496;2023-02-10T01:42:20;98330.75;;;-2.00;100.00
69848;BME280;57143;55.940;37.496;2023-02-10T01:45:22;98334.25;;;-2.08;100.00
69848;BME280;57143;55.940;37.496;2023-02-10T01:47:54;98266.94;;;-2.62;100.00
69848;BME280;57143;55.940;37.496;2023-02-10T01:50:24;98324.16;;;-2.20;100.00
69848;BME280;57143;55.940;37.496;2023-02-10T01:52:53;98204.56;;;-2.88;100.00
69848;BME280;57143;55.940;37.496;2023-02-10T01:55:25;98308.56;;;-2.07;100.00
69848;BME280;57143;55.940;37.496;2023-02-10T01:57:55;98281.44;;;-2.33;100.00
69848;BME280;57143;55.940;37.496;2023-02-10T02:00:24;98301.16;;;-2.28;100.00
69848;BME280;57143;55.940;37.496;2023-02-10T02:02:53;98261.47;;;-2.60;100.00
69848;BME280;57143;55.940;37.496;2023-02-10T02:05:29;98282.28;;;-2.33;100.00
69848;BME280;57143;55.940;37.496;2023-02-10T02:07:59;98250.78;;;-2.36;100.00
69848;BME280;57143;55.940;37.496;2023-02-10T02:10:38;98269.47;;;-2.21;100.00
69848;BME280;57143;55.940;37.496;2023-02-10T02:13:12;98250.31;;;-2.48;100.00
69848;BME280;57143;55.940;37.496;2023-02-10T02:15:47;98258.72;;;-2.28;100.00
69848;BME280;57143;55.940;37.496;2023-02-10T02:18:26;98242.00;;;-2.45;100.00
69848;BME280;57143;55.940;37.496;2023-02-10T02:21:26;98249.91;;;-2.28;100.00
69848;BME280;57143;55.940;37.496;2023-02-10T02:24:21;98215.84;;;-2.48;100.00
69848;BME280;57143;55.940;37.496;2023-02-10T02:27:14;98220.56;;;-2.27;100.00
69848;BME280;57143;55.940;37.496;2023-02-10T02:29:56;98215.25;;;-2.27;100.00
69848;BME280;57143;55.940;37.496;2023-02-10T02:32:33;98121.50;;;-2.73;100.00
69848;BME280;57143;55.940;37.496;2023-02-10T02:35:05;98188.19;;;-2.22;100.00
69848;BME280;57143;55.940;37.496;2023-02-10T02:37:35;98185.22;;;-2.27;100.00
69848;BME280;57143;55.940;37.496;2023-02-10T02:40:04;98176.94;;;-2.24;100.00
69848;BME280;57143;55.940;37.496;2023-02-10T02:42:32;98184.13;;;-2.33;100.00
69848;BME280;57143;55.940;37.496;2023-02-10T02:45:03;98176.16;;;-2.33;100.00
69848;BME280;57143;55.940;37.496;2023-02-10T02:47:46;98144.28;;;-2.56;100.00
69848;BME280;57143;55.940;37.496;2023-02-10T02:50:23;98165.03;;;-2.28;100.00
69848;BME280;57143;55.940;37.496;2023-02-10T02:53:05;98176.50;;;-2.36;100.00
69848;BME280;57143;55.940;37.496;2023-02-10T02:55:45;98109.34;;;-2.67;100.00
69848;BME280;57143;55.940;37.496;2023-02-10T02:58:20;98125.72;;;-2.56;100.00
69848;BME280;57143;55.940;37.496;2023-02-10T03:00:50;98150.91;;;-2.29;100.00
69848;BME280;57143;55.940;37.496;2023-02-10T03:03:19;98132.47;;;-2.22;100.00
69848;BME280;57143;55.940;37.496;2023-02-10T03:05:47;98063.19;;;-2.73;100.00
69848;BME280;57143;55.940;37.496;2023-02-10T03:08:14;98110.59;;;-2.47;100.00
69848;BME280;57143;55.940;37.496;2023-02-10T03:10:41;98085.94;;;-2.56;100.00
69848;BME280;57143;55.940;37.496;2023-02-10T03:13:08;98139.53;;;-2.38;100.00
69848;BME280;57143;55.940;37.496;2023-02-10T03:15:35;98083.91;;;-2.54;100.00
69848;BME280;57143;55.940;37.496;2023-02-10T03:18:03;98098.44;;;-2.42;100.00
69848;BME280;57143;55.940;37.496;2023-02-10T03:20:31;98076.59;;;-2.44;100.00
69848;BME280;57143;55.940;37.496;2023-02-10T03:22:58;98034.25;;;-2.60;100.00
69848;BME280;57143;55.940;37.496;2023-02-10T03:25:26;98049.41;;;-2.46;100.00
69848;BME280;57143;55.940;37.496;2023-02-10T03:27:53;98060.69;;;-2.44;100.00
69848;BME280;57143;55.940;37.496;2023-02-10T03:30:20;98056.47;;;-2.38;100.00
69848;BME280;57143;55.940;37.496;2023-02-10T03:32:47;98040.72;;;-2.40;100.00
69848;BME280;57143;55.940;37.496;2023-02-10T03:35:15;98034.84;;;-2.50;100.00
69848;BME280;57143;55.940;37.496;2023-02-10T03:37:43;98013.91;;;-2.45;100.00
69848;BME280;57143;55.940;37.496;2023-02-10T03:40:11;97998.09;;;-2.38;100.00
69848;BME280;57143;55.940;37.496;2023-02-10T03:42:38;98014.63;;;-2.51;100.00
69848;BME280;57143;55.940;37.496;2023-02-10T03:45:07;98005.97;;;-2.45;100.00
69848;BME280;57143;55.940;37.496;2023-02-10T03:47:34;97989.56;;;-2.48;100.00
69848;BME280;57143;55.940;37.496;2023-02-10T03:50:01;97935.94;;;-2.73;100.00
69848;BME280;57143;55.940;37.496;2023-02-10T03:52:29;97969.28;;;-2.41;100.00
69848;BME280;57143;55.940;37.496;2023-02-10T03:55:00;97934.13;;;-2.58;100.00
69848;BME280;57143;55.940;37.496;2023-02-10T03:57:27;97964.81;;;-2.41;100.00
69848;BME280;57143;55.940;37.496;2023-02-10T03:59:54;97960.50;;;-2.42;100.00
69848;BME280;57143;55.940;37.496;2023-02-10T04:02:21;97909.63;;;-2.60;100.00
69848;BME280;57143;55.940;37.496;2023-02-10T04:04:49;97918.59;;;-2.61;100.00
69848;BME280;57143;55.940;37.496;2023-02-10T04:07:16;97917.22;;;-2.57;100.00
69848;BME280;57143;55.940;37.496;2023-02-10T04:09:43;97936.53;;;-2.48;100.00
69848;BME280;57143;55.940;37.496;2023-02-10T04:12:12;97933.59;;;-2.53;100.00
69848;BME280;57143;55.940;37.496;2023-02-10T04:14:39;97917.88;;;-2.55;100.00
69848;BME280;57143;55.940;37.496;2023-02-10T04:17:06;97901.47;;;-2.73;100.00
69848;BME280;57143;55.940;37.496;2023-02-10T04:19:33;97890.88;;;-2.73;100.00
69848;BME280;57143;55.940;37.496;2023-02-10T04:22:01;97897.16;;;-2.74;100.00
69848;BME280;57143;55.940;37.496;2023-02-10T04:24:28;97869.78;;;-2.89;100.00
69848;BME280;57143;55.940;37.496;2023-02-10T04:26:55;97858.06;;;-2.94;100.00
69848;BME280;57143;55.940;37.496;2023-02-10T04:29:24;97883.06;;;-2.74;100.00
69848;BME280;57143;55.940;37.496;2023-02-10T04:31:51;97874.16;;;-2.81;100.00
69848;BME280;57143;55.940;37.496;2023-02-10T04:34:18;97841.22;;;-3.01;100.00
69848;BME280;57143;55.940;37.496;2023-02-10T04:36:45;97846.44;;;-2.93;100.00
69848;BME280;57143;55.940;37.496;2023-02-10T04:39:12;97869.88;;;-2.82;100.00
69848;BME280;57143;55.940;37.496;2023-02-10T04:41:40;97837.69;;;-2.94;100.00
69848;BME280;57143;55.940;37.496;2023-02-10T04:44:07;97868.47;;;-2.93;100.00
69848;BME280;57143;55.940;37.496;2023-02-10T04:46:35;97848.88;;;-2.84;100.00
69848;BME280;57143;55.940;37.496;2023-02-10T04:49:03;97811.41;;;-3.03;100.00
69848;BME280;57143;55.940;37.496;2023-02-10T04:51:30;97765.38;;;-3.39;100.00
69848;BME280;57143;55.940;37.496;2023-02-10T04:53:57;97775.56;;;-3.28;100.00
69848;BME280;57143;55.940;37.496;2023-02-10T04:56:24;97789.75;;;-3.07;100.00
69848;BME280;57143;55.940;37.496;2023-02-10T04:58:51;97829.75;;;-2.79;100.00
69848;BME280;57143;55.940;37.496;2023-02-10T05:01:19;97804.09;;;-3.16;100.00
69848;BME280;57143;55.940;37.496;2023-02-10T05:03:47;97808.78;;;-3.03;100.00
69848;BME280;57143;55.940;37.496;2023-02-10T05:06:15;97827.91;;;-2.93;100.00
69848;BME280;57143;55.940;37.496;2023-02-10T05:08:42;97766.06;;;-3.23;100.00
69848;BME280;57143;55.940;37.496;2023-02-10T05:11:11;97792.06;;;-3.04;100.00
69848;BME280;57143;55.940;37.496;2023-02-10T05:13:38;97817.06;;;-2.84;100.00
69848;BME280;57143;55.940;37.496;2023-02-10T05:16:07;97803.56;;;-2.97;100.00
69848;BME280;57143;55.940;37.496;2023-02-10T05:18:34;97810.34;;;-2.94;100.00
69848;BME280;57143;55.940;37.496;2023-02-10T05:21:03;97795.28;;;-2.94;100.00
69848;BME280;57143;55.940;37.496;2023-02-10T05:23:30;97790.69;;;-3.00;100.00
69848;BME280;57143;55.940;37.496;2023-02-10T05:25:57;97785.03;;;-2.97;100.00
69848;BME280;57143;55.940;37.496;2023-02-10T05:28:24;97784.22;;;-2.97;100.00
69848;BME280;57143;55.940;37.496;2023-02-10T05:30:53;97768.94;;;-3.10;100.00
69848;BME280;57143;55.940;37.496;2023-02-10T05:33:21;97762.78;;;-3.25;100.00
69848;BME280;57143;55.940;37.496;2023-02-10T05:35:48;97771.88;;;-3.05;100.00
69848;BME280;57143;55.940;37.496;2023-02-10T05:38:16;97773.06;;;-3.07;100.00
69848;BME280;57143;55.940;37.496;2023-02-10T05:40:43;97762.28;;;-3.06;100.00
69848;BME280;57143;55.940;37.496;2023-02-10T05:43:10;97760.91;;;-3.02;100.00
69848;BME280;57143;55.940;37.496;2023-02-10T05:45:37;97730.53;;;-3.14;100.00
69848;BME280;57143;55.940;37.496;2023-02-10T05:48:06;97747.50;;;-3.00;100.00
69848;BME280;57143;55.940;37.496;2023-02-10T05:50:33;97741.09;;;-2.91;100.00
69848;BME280;57143;55.940;37.496;2023-02-10T05:53:00;97727.75;;;-2.69;100.00
69848;BME280;57143;55.940;37.496;2023-02-10T05:55:29;97722.56;;;-2.33;100.00
69848;BME280;57143;55.940;37.496;2023-02-10T05:57:56;97706.22;;;-2.15;100.00
69848;BME280;57143;55.940;37.496;2023-02-10T06:00:23;97726.56;;;-2.37;100.00
69848;BME280;57143;55.940;37.496;2023-02-10T06:02:51;97765.91;;;-2.41;100.00
69848;BME280;57143;55.940;37.496;2023-02-10T06:05:18;97768.19;;;-2.38;100.00
69848;BME280;57143;55.940;37.496;2023-02-10T06:07:45;97782.09;;;-2.21;100.00
69848;BME280;57143;55.940;37.496;2023-02-10T06:10:12;97781.16;;;-2.13;100.00
69848;BME280;57143;55.940;37.496;2023-02-10T06:12:41;97786.59;;;-1.86;100.00
69848;BME280;57143;55.940;37.496;2023-02-10T06:15:08;97787.91;;;-1.61;100.00
69848;BME280;57143;55.940;37.496;2023-02-10T06:17:36;97802.59;;;-1.44;100.00
69848;BME280;57143;55.940;37.496;2023-02-10T06:20:04;97820.03;;;-1.56;100.00
69848;BME280;57143;55.940;37.496;2023-02-10T06:22:32;97861.38;;;-1.68;100.00
69848;BME280;57143;55.940;37.496;2023-02-10T06:24:59;97894.03;;;-1.67;100.00
69848;BME280;57143;55.940;37.496;2023-02-10T06:27:26;97907.81;;;-1.78;100.00
69848;BME280;57143;55.940;37.496;2023-02-10T06:29:55;97935.06;;;-1.84;100.00
69848;BME280;57143;55.940;37.496;2023-02-10T06:32:22;97942.75;;;-1.89;100.00
69848;BME280;57143;55.940;37.496;2023-02-10T06:34:49;97931.31;;;-1.75;100.00
69848;BME280;57143;55.940;37.496;2023-02-10T06:37:16;97923.53;;;-2.06;100.00
69848;BME280;57143;55.940;37.496;2023-02-10T06:39:44;97943.13;;;-1.92;100.00
69848;BME280;57143;55.940;37.496;2023-02-10T06:42:11;97926.03;;;-1.90;100.00
69848;BME280;57143;55.940;37.496;2023-02-10T06:44:38;97935.72;;;-1.82;100.00
69848;BME280;57143;55.940;37.496;2023-02-10T06:47:06;97908.69;;;-1.42;100.00
69848;BME280;57143;55.940;37.496;2023-02-10T06:49:33;97940.47;;;-1.49;100.00
69848;BME280;57143;55.940;37.496;2023-02-10T06:52:01;97959.44;;;-1.37;100.00
69848;BME280;57143;55.940;37.496;2023-02-10T06:54:29;97958.78;;;-1.25;100.00
69848;BME280;57143;55.940;37.496;2023-02-10T06:56:56;97983.16;;;-1.21;100.00
69848;BME280;57143;55.940;37.496;2023-02-10T06:59:23;97997.34;;;-1.14;100.00
69848;BME280;57143;55.940;37.496;2023-02-10T07:01:50;97994.72;;;-0.93;100.00
69848;BME280;57143;55.940;37.496;2023-02-10T07:04:20;98013.13;;;-0.91;100.00
69848;BME280;57143;55.940;37.496;2023-02-10T07:06:47;97987.28;;;-0.83;100.00
69848;BME280;57143;55.940;37.496;2023-02-10T07:09:14;98035.72;;;-0.31;100.00
69848;BME280;57143;55.940;37.496;2023-02-10T07:11:41;98090.50;;;-0.01;100.00
69848;BME280;57143;55.940;37.496;2023-02-10T07:14:09;98129.75;;;0.12;100.00
69848;BME280;57143;55.940;37.496;2023-02-10T07:16:36;98178.25;;;0.08;100.00
69848;BME280;57143;55.940;37.496;2023-02-10T07:19:03;98179.88;;;-0.13;100.00
69848;BME280;57143;55.940;37.496;2023-02-10T07:21:31;98221.25;;;-0.10;100.00
69848;BME280;57143;55.940;37.496;2023-02-10T07:23:59;98239.94;;;0.11;100.00
69848;BME280;57143;55.940;37.496;2023-02-10T07:26:27;98254.69;;;-0.08;100.00
69848;BME280;57143;55.940;37.496;2023-02-10T07:28:55;98261.69;;;0.29;100.00
69848;BME280;57143;55.940;37.496;2023-02-10T07:31:22;98283.16;;;0.28;100.00
69848;BME280;57143;55.940;37.496;2023-02-10T07:33:49;98310.19;;;0.25;100.00
69848;BME280;57143;55.940;37.496;2023-02-10T07:36:16;98290.69;;;0.39;100.00
69848;BME280;57143;55.940;37.496;2023-02-10T07:38:45;98331.94;;;0.43;100.00
69848;BME280;57143;55.940;37.496;2023-02-10T07:41:12;98325.44;;;0.31;100.00
69848;BME280;57143;55.940;37.496;2023-02-10T07:43:39;98350.06;;;0.03;100.00
69848;BME280;57143;55.940;37.496;2023-02-10T07:46:06;98322.53;;;-0.47;100.00
69848;BME280;57143;55.940;37.496;2023-02-10T07:48:34;98339.28;;;-0.61;100.00
69848;BME280;57143;55.940;37.496;2023-02-10T07:51:01;98333.28;;;-0.78;100.00
69848;BME280;57143;55.940;37.496;2023-02-10T07:53:28;98299.03;;;-0.95;100.00
69848;BME280;57143;55.940;37.496;2023-02-10T07:55:59;98272.03;;;-1.07;100.00
69848;BME280;57143;55.940;37.496;2023-02-10T07:58:26;98227.00;;;-0.71;100.00
69848;BME280;57143;55.940;37.496;2023-02-10T08:00:53;98206.81;;;-0.01;100.00
69848;BME280;57143;55.940;37.496;2023-02-10T08:03:20;98221.44;;;0.03;100.00
69848;BME280;57143;55.940;37.496;2023-02-10T08:05:47;98202.69;;;0.32;100.00
69848;BME280;57143;55.940;37.496;2023-02-10T08:08:15;98245.91;;;0.70;100.00
69848;BME280;57143;55.940;37.496;2023-02-10T08:10:42;98298.09;;;0.79;100.00
69848;BME280;57143;55.940;37.496;2023-02-10T08:13:10;98334.38;;;0.94;100.00
69848;BME280;57143;55.940;37.496;2023-02-10T08:15:37;98342.53;;;1.14;100.00
69848;BME280;57143;55.940;37.496;2023-02-10T08:18:05;98389.66;;;0.86;100.00
69848;BME280;57143;55.940;37.496;2023-02-10T08:20:32;98398.50;;;1.07;100.00
69848;BME280;57143;55.940;37.496;2023-02-10T08:22:59;98393.94;;;1.44;100.00
69848;BME280;57143;55.940;37.496;2023-02-10T08:25:26;98396.94;;;1.55;100.00
69848;BME280;57143;55.940;37.496;2023-02-10T08:27:54;98439.69;;;1.41;100.00
69848;BME280;57143;55.940;37.496;2023-02-10T08:30:23;98455.34;;;1.44;100.00
69848;BME280;57143;55.940;37.496;2023-02-10T08:32:50;98473.28;;;1.14;100.00
69848;BME280;57143;55.940;37.496;2023-02-10T08:35:18;98498.72;;;0.95;100.00
69848;BME280;57143;55.940;37.496;2023-02-10T08:37:45;98470.66;;;0.85;100.00
69848;BME280;57143;55.940;37.496;2023-02-10T08:40:12;98447.09;;;0.53;100.00
69848;BME280;57143;55.940;37.496;2023-02-10T08:42:39;98427.97;;;0.35;100.00
69848;BME280;57143;55.940;37.496;2023-02-10T08:45:07;98393.34;;;0.20;100.00
69848;BME280;57143;55.940;37.496;2023-02-10T08:47:36;98380.31;;;-0.04;100.00
69848;BME280;57143;55.940;37.496;2023-02-10T08:50:04;98360.38;;;-0.08;100.00
69848;BME280;57143;55.940;37.496;2023-02-10T08:52:31;98345.94;;;-0.28;100.00
69848;BME280;57143;55.940;37.496;2023-02-10T08:54:59;98336.19;;;-0.36;100.00
69848;BME280;57143;55.940;37.496;2023-02-10T08:57:28;98314.47;;;-0.25;100.00
69848;BME280;57143;55.940;37.496;2023-02-10T08:59:56;98293.53;;;-0.28;100.00
69848;BME280;57143;55.940;37.496;2023-02-10T09:02:23;98302.91;;;-0.32;100.00
69848;BME280;57143;55.940;37.496;2023-02-10T09:04:51;98308.59;;;-0.35;100.00
69848;BME280;57143;55.940;37.496;2023-02-10T09:07:19;98237.19;;;-0.46;100.00
69848;BME280;57143;55.940;37.496;2023-02-10T09:09:46;98283.44;;;-0.32;100.00
69848;BME280;57143;55.940;37.496;2023-02-10T09:12:13;98264.06;;;-0.26;100.00
69848;BME280;57143;55.940;37.496;2023-02-10T09:14:40;98249.94;;;-0.27;100.00
69848;BME280;57143;55.940;37.496;2023-02-10T09:17:07;98238.53;;;-0.50;100.00
69848;BME280;57143;55.940;37.496;2023-02-10T09:19:35;98261.78;;;-0.44;100.00
69848;BME280;57143;55.940;37.496;2023-02-10T09:22:04;98232.94;;;-0.55;100.00
69848;BME280;57143;55.940;37.496;2023-02-10T09:24:32;98242.78;;;-0.41;100.00
69848;BME280;57143;55.940;37.496;2023-02-10T09:26:59;98243.34;;;-0.45;100.00
69848;BME280;57143;55.940;37.496;2023-02-10T09:29:26;98240.31;;;-0.42;100.00
69848;BME280;57143;55.940;37.496;2023-02-10T09:31:58;98250.94;;;-0.28;100.00
69848;BME280;57143;55.940;37.496;2023-02-10T09:34:29;98266.16;;;-0.36;100.00
69848;BME280;57143;55.940;37.496;2023-02-10T09:36:59;98183.03;;;-1.11;100.00
69848;BME280;57143;55.940;37.496;2023-02-10T09:39:30;98210.72;;;-0.91;100.00
69848;BME280;57143;55.940;37.496;2023-02-10T09:42:03;98309.03;;;-0.17;100.00
69848;BME280;57143;55.940;37.496;2023-02-10T09:44:35;98313.53;;;-0.17;100.00
69848;BME280;57143;55.940;37.496;2023-02-10T09:47:17;98316.72;;;-0.36;100.00
69848;BME280;57143;55.940;37.496;2023-02-10T09:50:03;98332.16;;;-0.17;100.00
69848;BME280;57143;55.940;37.496;2023-02-10T09:52:41;98334.09;;;-0.26;100.00
69848;BME280;57143;55.940;37.496;2023-02-10T09:55:15;98342.56;;;-0.08;100.00
69848;BME280;57143;55.940;37.496;2023-02-10T09:57:45;98342.00;;;-0.03;100.00
69848;BME280;57143;55.940;37.496;2023-02-10T10:00:23;98368.91;;;0.02;100.00
69848;BME280;57143;55.940;37.496;2023-02-10T10:02:53;98338.50;;;-0.33;100.00
69848;BME280;57143;55.940;37.496;2023-02-10T10:05:26;98348.81;;;-0.01;100.00
69848;BME280;57143;55.940;37.496;2023-02-10T10:07:59;98366.88;;;0.04;100.00
69848;BME280;57143;55.940;37.496;2023-02-10T10:10:31;98360.72;;;-0.11;100.00
69848;BME280;57143;55.940;37.496;2023-02-10T10:13:00;98357.97;;;0.12;100.00
69848;BME280;57143;55.940;37.496;2023-02-10T10:15:31;98356.25;;;-0.11;100.00
69848;BME280;57143;55.940;37.496;2023-02-10T10:18:07;98354.94;;;-0.15;100.00
69848;BME280;57143;55.940;37.496;2023-02-10T10:20:47;98355.03;;;-0.08;100.00
69848;BME280;57143;55.940;37.496;2023-02-10T10:23:37;98380.56;;;0.01;100.00
69848;BME280;57143;55.940;37.496;2023-02-10T10:26:35;98384.31;;;-0.08;100.00
69848;BME280;57143;55.940;37.496;2023-02-10T10:29:19;98364.69;;;-0.07;100.00
69848;BME280;57143;55.940;37.496;2023-02-10T10:31:49;98386.63;;;-0.05;100.00
69848;BME280;57143;55.940;37.496;2023-02-10T10:34:21;98309.13;;;-0.54;100.00
69848;BME280;57143;55.940;37.496;2023-02-10T10:36:52;98379.22;;;0.05;100.00
69848;BME280;57143;55.940;37.496;2023-02-10T10:39:29;98363.84;;;-0.08;100.00
69848;BME280;57143;55.940;37.496;2023-02-10T10:42:01;98377.72;;;0.03;100.00
69848;BME280;57143;55.940;37.496;2023-02-10T10:44:31;98352.75;;;-0.11;100.00
69848;BME280;57143;55.940;37.496;2023-02-10T10:47:05;98389.50;;;0.08;100.00
69848;BME280;57143;55.940;37.496;2023-02-10T10:49:34;98398.19;;;0.02;100.00
69848;BME280;57143;55.940;37.496;2023-02-10T10:52:02;98404.91;;;-0.02;100.00
69848;BME280;57143;55.940;37.496;2023-02-10T10:54:35;98261.00;;;-0.81;100.00
69848;BME280;57143;55.940;37.496;2023-02-10T10:57:05;98426.31;;;0.05;100.00
69848;BME280;57143;55.940;37.496;2023-02-10T10:59:38;98399.88;;;0.03;100.00
69848;BME280;57143;55.940;37.496;2023-02-10T11:02:13;98383.50;;;-0.09;100.00
69848;BME280;57143;55.940;37.496;2023-02-10T11:04:40;98422.91;;;0.11;100.00
69848;BME280;57143;55.940;37.496;2023-02-10T11:07:11;98427.88;;;0.14;100.00
69848;BME280;57143;55.940;37.496;2023-02-10T11:09:41;98401.50;;;0.04;100.00
69848;BME280;57143;55.940;37.496;2023-02-10T11:12:20;98382.41;;;-0.14;100.00
69848;BME280;57143;55.940;37.496;2023-02-10T11:14:50;98410.88;;;0.00;100.00
69848;BME280;57143;55.940;37.496;2023-02-10T11:17:23;98416.59;;;0.12;100.00
69848;BME280;57143;55.940;37.496;2023-02-10T11:19:57;98414.91;;;0.11;100.00
69848;BME280;57143;55.940;37.496;2023-02-10T11:22:25;98395.81;;;-0.08;100.00
69848;BME280;57143;55.940;37.496;2023-02-10T11:24:54;98425.41;;;0.12;100.00
69848;BME280;57143;55.940;37.496;2023-02-10T11:27:23;98407.78;;;0.26;100.00
69848;BME280;57143;55.940;37.496;2023-02-10T11:29:52;98373.22;;;-0.12;100.00
69848;BME280;57143;55.940;37.496;2023-02-10T11:32:23;98412.91;;;0.13;100.00
69848;BME280;57143;55.940;37.496;2023-02-10T11:34:51;98316.72;;;-0.51;100.00
69848;BME280;57143;55.940;37.496;2023-02-10T11:37:22;98384.06;;;0.02;100.00
69848;BME280;57143;55.940;37.496;2023-02-10T11:39:52;98371.94;;;-0.16;100.00
69848;BME280;57143;55.940;37.496;2023-02-10T11:42:24;98392.94;;;-0.21;100.00
69848;BME280;57143;55.940;37.496;2023-02-10T11:44:54;98397.19;;;0.03;100.00
69848;BME280;57143;55.940;37.496;2023-02-10T11:47:22;98383.06;;;0.03;100.00
69848;BME280;57143;55.940;37.496;2023-02-10T11:49:50;98383.31;;;0.08;100.00
69848;BME280;57143;55.940;37.496;2023-02-10T11:52:18;98370.56;;;0.03;100.00
69848;BME280;57143;55.940;37.496;2023-02-10T11:54:47;98347.16;;;-0.16;100.00
69848;BME280;57143;55.940;37.496;2023-02-10T11:57:29;98381.47;;;-0.07;100.00
69848;BME280;57143;55.940;37.496;2023-02-10T12:00:20;98366.88;;;-0.25;100.00
69848;BME280;57143;55.940;37.496;2023-02-10T12:06:03;98367.44;;;-0.15;100.00
69848;BME280;57143;55.940;37.496;2023-02-10T12:08:40;98344.13;;;-0.28;100.00
69848;BME280;57143;55.940;37.496;2023-02-10T12:11:14;98263.44;;;-0.57;100.00
69848;BME280;57143;55.940;37.496;2023-02-10T12:13:49;98340.72;;;-0.07;100.00
69848;BME280;57143;55.940;37.496;2023-02-10T12:16:22;98276.28;;;-0.61;100.00
69848;BME280;57143;55.940;37.496;2023-02-10T12:18:58;98280.31;;;-0.50;100.00
69848;BME280;57143;55.940;37.496;2023-02-10T12:21:47;98246.13;;;-0.76;100.00
69848;BME280;57143;55.940;37.496;2023-02-10T12:24:36;98298.66;;;-0.12;100.00
69848;BME280;57143;55.940;37.496;2023-02-10T12:27:13;98303.06;;;-0.19;100.00
69848;BME280;57143;55.940;37.496;2023-02-10T12:29:50;98274.91;;;-0.42;100.00
69848;BME280;57143;55.940;37.496;2023-02-10T12:32:26;98314.84;;;-0.28;100.00
69848;BME280;57143;55.940;37.496;2023-02-10T12:35:06;98314.09;;;-0.22;100.00
69848;BME280;57143;55.940;37.496;2023-02-10T12:37:42;98306.09;;;-0.22;100.00
69848;BME280;57143;55.940;37.496;2023-02-10T12:40:23;98283.16;;;-0.37;100.00
69848;BME280;57143;55.940;37.496;2023-02-10T12:43:02;98282.88;;;-0.42;100.00
69848;BME280;57143;55.940;37.496;2023-02-10T12:45:41;98248.56;;;-0.66;100.00
69848;BME280;57143;55.940;37.496;2023-02-10T12:48:21;98265.88;;;-0.41;100.00
69848;BME280;57143;55.940;37.496;2023-02-10T12:51:16;98239.66;;;-0.44;100.00
69848;BME280;57143;55.940;37.496;2023-02-10T12:53:49;98259.38;;;-0.39;100.00
69848;BME280;57143;55.940;37.496;2023-02-10T12:56:21;98266.44;;;-0.46;100.00
69848;BME280;57143;55.940;37.496;2023-02-10T12:58:53;98185.69;;;-0.96;100.00